createdAt,value
2017-04-04T00:00:40.748Z,95.41
2017-04-04T00:02:02.028Z,95.31
2017-04-04T00:03:24.527Z,95.69
2017-04-04T00:04:46.682Z,95.79
2017-04-04T00:06:08.174Z,96.08
2017-04-04T00:07:29.998Z,95.98
2017-04-04T00:08:51.792Z,96.45
2017-04-04T00:10:13.935Z,96.78
2017-04-04T00:11:35.428Z,96.97
2017-04-04T00:12:56.921Z,96.97
2017-04-04T00:14:19.672Z,97.35
2017-04-04T00:15:41.195Z,97.64
2017-04-04T00:17:03.116Z,98.02
2017-04-04T00:18:24.613Z,98.39
2017-04-04T00:19:46.106Z,98.3
2017-04-04T00:21:07.959Z,98.49
2017-04-04T00:22:30.401Z,98.49
2017-04-04T00:23:52.866Z,98.39
2017-04-04T00:25:14.717Z,98.68
2017-04-04T00:26:36.331Z,99.15
2017-04-04T00:27:58.446Z,98.96
2017-04-04T00:29:20.306Z,99.72
2017-04-04T00:30:42.729Z,99.99
2017-04-04T00:32:04.227Z,99.91
2017-04-04T00:33:26.041Z,99.99
2017-04-04T00:34:48.312Z,99.99
2017-04-04T00:36:10.196Z,99.91
2017-04-04T00:37:31.422Z,99.99
2017-04-04T00:38:53.634Z,99.99
2017-04-04T00:40:16.172Z,99.99
2017-04-04T00:41:38.271Z,99.82
2017-04-04T00:42:59.786Z,99.99
2017-04-04T00:44:22.244Z,99.99
2017-04-04T00:45:44.057Z,99.99
2017-04-04T00:47:06.846Z,99.82
2017-04-04T00:48:28.983Z,99.99
2017-04-04T00:49:50.267Z,99.99
2017-04-04T00:51:12.397Z,99.99
2017-04-04T00:52:34.254Z,99.99
2017-04-04T00:53:56.380Z,99.99
2017-04-04T00:55:18.270Z,99.99
2017-04-04T00:56:40.093Z,99.99
2017-04-04T00:58:02.357Z,99.99
2017-04-04T00:59:24.627Z,99.99
2017-04-04T01:00:46.765Z,99.99
2017-04-04T01:02:08.584Z,99.99
2017-04-04T01:03:31.061Z,99.99
2017-04-04T01:04:53.185Z,99.99
2017-04-04T01:06:14.694Z,99.99
2017-04-04T01:07:36.208Z,99.99
2017-04-04T01:08:58.053Z,99.99
2017-04-04T01:10:20.636Z,99.99
2017-04-04T01:11:42.928Z,99.99
2017-04-04T01:13:04.765Z,99.99
2017-04-04T01:14:26.885Z,99.99
2017-04-04T01:15:48.686Z,99.99
2017-04-04T01:17:10.551Z,99.99
2017-04-04T01:18:32.684Z,99.99
2017-04-04T01:19:55.276Z,99.99
2017-04-04T01:21:16.969Z,99.99
2017-04-04T01:22:38.797Z,99.99
2017-04-04T01:24:00.623Z,99.99
2017-04-04T01:25:23.105Z,99.99
2017-04-04T01:26:45.548Z,99.99
2017-04-04T01:28:07.070Z,99.99
2017-04-04T01:29:28.903Z,99.99
2017-04-04T01:30:51.678Z,99.99
2017-04-04T01:32:14.194Z,99.99
2017-04-04T01:33:36.336Z,99.99
2017-04-04T01:34:58.476Z,99.99
2017-04-04T01:36:20.654Z,99.99
2017-04-04T01:37:42.284Z,99.99
2017-04-04T01:39:04.517Z,99.99
2017-04-04T01:40:26.434Z,99.99
2017-04-04T01:41:48.568Z,99.99
2017-04-04T01:43:10.709Z,99.99
2017-04-04T01:44:32.848Z,99.99
2017-04-04T01:45:55.316Z,99.99
2017-04-04T01:47:18.054Z,99.99
2017-04-04T01:48:40.522Z,99.99
2017-04-04T01:50:02.435Z,99.99
2017-04-04T01:51:23.948Z,99.99
2017-04-04T01:52:46.065Z,99.99
2017-04-04T01:54:08.203Z,99.99
2017-04-04T01:55:30.123Z,99.99
2017-04-04T01:56:52.587Z,99.99
2017-04-04T01:58:15.351Z,99.99
2017-04-04T01:59:36.854Z,99.99
2017-04-04T02:00:59.295Z,99.99
2017-04-04T02:02:21.134Z,99.99
2017-04-04T02:03:42.939Z,99.99
2017-04-04T02:05:05.076Z,99.99
2017-04-04T02:06:27.619Z,99.99
2017-04-04T02:07:49.201Z,99.99
2017-04-04T02:09:11.566Z,99.99
2017-04-04T02:10:33.364Z,99.99
2017-04-04T02:11:55.490Z,99.99
2017-04-04T02:13:17.313Z,99.99
2017-04-04T02:14:39.880Z,99.99
2017-04-04T02:16:01.730Z,99.99
2017-04-04T02:17:23.225Z,99.99
2017-04-04T02:18:44.712Z,99.99
2017-04-04T02:20:06.980Z,99.99
2017-04-04T02:21:28.828Z,99.99
2017-04-04T02:22:50.730Z,99.99
2017-04-04T02:24:12.867Z,99.99
2017-04-04T02:25:35.289Z,99.99
2017-04-04T02:26:56.825Z,99.99
2017-04-04T02:28:18.315Z,99.99
2017-04-04T02:29:40.255Z,99.99
2017-04-04T02:31:02.283Z,99.99
2017-04-04T02:32:24.725Z,99.99
2017-04-04T02:33:47.174Z,99.99
2017-04-04T02:35:08.674Z,99.99
2017-04-04T02:36:30.805Z,99.99
2017-04-04T02:37:52.325Z,99.99
2017-04-04T02:39:13.817Z,99.99
2017-04-04T02:40:35.629Z,99.99
2017-04-04T02:41:57.825Z,99.99
2017-04-04T02:43:19.655Z,99.99
2017-04-04T02:44:41.206Z,99.99
2017-04-04T02:46:03.343Z,99.99
2017-04-04T02:48:55.965Z,99.99
2017-04-04T02:50:18.129Z,99.99
2017-04-04T02:51:40.330Z,99.99
2017-04-04T02:53:02.147Z,99.99
2017-04-04T02:54:24.415Z,99.99
2017-04-04T02:55:46.526Z,99.99
2017-04-04T02:57:08.391Z,99.99
2017-04-04T02:58:30.616Z,99.99
2017-04-04T02:59:52.769Z,99.99
2017-04-04T03:01:14.249Z,99.99
2017-04-04T03:02:35.777Z,99.99
2017-04-04T03:03:57.969Z,99.99
2017-04-04T03:05:19.823Z,99.99
2017-04-04T03:06:42.073Z,99.99
2017-04-04T03:08:03.567Z,99.99
2017-04-04T03:09:25.065Z,99.99
2017-04-04T03:10:47.794Z,99.99
2017-04-04T03:12:09.592Z,99.99
2017-04-04T03:13:31.430Z,99.99
2017-04-04T03:14:53.560Z,99.99
2017-04-04T03:16:15.678Z,99.99
2017-04-04T03:17:37.511Z,99.99
2017-04-04T03:18:59.645Z,99.99
2017-04-04T03:20:21.042Z,99.99
2017-04-04T03:21:43.335Z,99.99
2017-04-04T03:23:05.148Z,99.99
2017-04-04T03:24:26.624Z,99.99
2017-04-04T03:25:48.248Z,99.99
2017-04-04T03:27:10.342Z,99.99
2017-04-04T03:28:32.505Z,99.99
2017-04-04T03:29:54.452Z,99.99
2017-04-04T03:31:16.590Z,99.99
2017-04-04T03:32:38.456Z,99.99
2017-04-04T03:34:00.261Z,99.99
2017-04-04T03:35:21.433Z,99.99
2017-04-04T03:36:43.552Z,99.99
2017-04-04T03:38:05.338Z,99.99
2017-04-04T03:39:27.157Z,99.99
2017-04-04T03:40:48.726Z,99.99
2017-04-04T03:42:10.585Z,99.99
2017-04-04T03:43:32.720Z,99.99
2017-04-04T03:44:54.906Z,99.99
2017-04-04T03:46:17.037Z,99.99
2017-04-04T03:47:38.844Z,99.99
2017-04-04T03:49:00.436Z,99.99
2017-04-04T03:50:22.262Z,99.99
2017-04-04T03:51:44.355Z,99.99
2017-04-04T03:53:05.862Z,99.99
2017-04-04T03:54:28.297Z,99.99
2017-04-04T03:55:50.750Z,99.99
2017-04-04T03:57:12.452Z,99.99
2017-04-04T03:58:34.002Z,99.99
2017-04-04T03:59:57.764Z,99.99
2017-04-04T04:01:19.579Z,99.99
2017-04-04T04:02:41.383Z,99.99
2017-04-04T04:04:03.553Z,99.99
2017-04-04T04:05:25.456Z,99.99
2017-04-04T04:06:47.290Z,99.99
2017-04-04T04:08:08.790Z,99.99
2017-04-04T04:09:30.924Z,99.99
2017-04-04T04:10:53.361Z,99.99
2017-04-04T04:12:15.816Z,99.99
2017-04-04T04:13:37.658Z,99.99
2017-04-04T04:14:59.959Z,99.99
2017-04-04T04:16:22.002Z,99.99
2017-04-04T04:17:44.131Z,99.99
2017-04-04T04:19:06.319Z,99.99
2017-04-04T04:20:28.025Z,99.99
2017-04-04T04:21:49.820Z,99.99
2017-04-04T04:23:11.972Z,99.99
2017-04-04T04:24:34.187Z,99.99
2017-04-04T04:25:56.030Z,99.99
2017-04-04T04:27:17.983Z,99.99
2017-04-04T04:28:39.485Z,99.99
2017-04-04T04:30:00.970Z,99.99
2017-04-04T04:31:22.777Z,99.99
2017-04-04T04:32:44.979Z,99.99
2017-04-04T04:34:06.809Z,99.99
2017-04-04T04:35:29.276Z,99.99
2017-04-04T04:36:51.706Z,99.99
2017-04-04T04:38:14.545Z,99.99
2017-04-04T04:39:36.787Z,99.99
2017-04-04T04:40:58.763Z,99.99
2017-04-04T04:42:20.271Z,99.99
2017-04-04T04:43:42.455Z,99.99
2017-04-04T04:45:04.577Z,99.99
2017-04-04T04:46:26.786Z,99.99
2017-04-04T04:47:49.244Z,99.99
2017-04-04T04:49:11.075Z,99.99
2017-04-04T04:50:33.230Z,99.99
2017-04-04T04:51:55.058Z,99.99
2017-04-04T04:53:17.253Z,99.99
2017-04-04T04:54:39.313Z,99.99
2017-04-04T04:56:01.541Z,99.99
2017-04-04T04:57:23.657Z,99.99
2017-04-04T04:58:45.844Z,99.99
2017-04-04T05:00:07.701Z,99.99
2017-04-04T05:01:29.374Z,99.99
2017-04-04T05:02:51.516Z,99.99
2017-04-04T05:04:13.026Z,99.99
2017-04-04T05:05:34.545Z,99.99
2017-04-04T05:06:56.728Z,99.99
2017-04-04T05:08:18.240Z,99.99
2017-04-04T05:09:40.057Z,99.99
2017-04-04T05:11:02.579Z,99.99
2017-04-04T05:12:24.699Z,99.99
2017-04-04T05:13:46.842Z,99.99
2017-04-04T05:15:09.051Z,99.99
2017-04-04T05:16:31.498Z,99.99
2017-04-04T05:17:53.767Z,99.99
2017-04-04T05:19:15.936Z,99.99
2017-04-04T05:20:37.106Z,99.99
2017-04-04T05:21:58.560Z,99.99
2017-04-04T05:23:20.862Z,99.99
2017-04-04T05:24:43.095Z,99.99
2017-04-04T05:26:05.215Z,99.99
2017-04-04T05:27:27.656Z,99.99
2017-04-04T05:28:49.795Z,99.99
2017-04-04T05:30:11.945Z,99.99
2017-04-04T05:31:34.077Z,99.99
2017-04-04T05:32:56.328Z,99.99
2017-04-04T05:34:18.777Z,99.99
2017-04-04T05:35:40.947Z,99.99
2017-04-04T05:37:02.817Z,99.99
2017-04-04T05:38:24.890Z,99.99
2017-04-04T05:39:46.700Z,99.99
2017-04-04T05:41:09.171Z,99.99
2017-04-04T05:42:30.978Z,99.99
2017-04-04T05:43:53.396Z,99.99
2017-04-04T05:45:15.306Z,99.99
2017-04-04T05:46:37.791Z,99.99
2017-04-04T05:47:59.093Z,99.99
2017-04-04T05:49:21.185Z,99.99
2017-04-04T05:50:43.310Z,99.99
2017-04-04T05:52:05.477Z,99.99
2017-04-04T05:53:26.985Z,99.99
2017-04-04T05:54:49.391Z,99.99
2017-04-04T05:56:11.536Z,99.99
2017-04-04T05:57:33.696Z,94.84
2017-04-04T05:58:55.188Z,91.7
2017-04-04T06:00:17.506Z,87.27
2017-04-04T06:01:39.338Z,84.36
2017-04-04T06:03:01.244Z,79.55
2017-04-04T06:04:22.884Z,79.07
2017-04-04T06:05:45.307Z,73.49
2017-04-04T06:07:07.137Z,72
2017-04-04T06:08:29.268Z,68.95
2017-04-04T06:09:51.449Z,66.63
2017-04-04T06:11:13.906Z,61.6
2017-04-04T06:12:35.725Z,58.61
2017-04-04T06:13:57.865Z,56.21
2017-04-04T06:15:20.101Z,55.76
2017-04-04T06:16:42.530Z,54.9
2017-04-04T06:18:04.407Z,54.43
2017-04-04T06:19:25.930Z,53.3
2017-04-04T06:20:47.755Z,52.06
2017-04-04T06:22:10.172Z,51.68
2017-04-04T06:23:32.375Z,52.63
2017-04-04T06:24:54.260Z,52.54
2017-04-04T06:26:16.813Z,51.93
2017-04-04T06:27:38.599Z,52.15
2017-04-04T06:29:00.745Z,51.84
2017-04-04T06:30:23.020Z,52.03
2017-04-04T06:31:44.940Z,51.2
2017-04-04T06:33:07.676Z,49.4
2017-04-04T06:34:30.114Z,47.8
2017-04-04T06:35:51.931Z,45.74
2017-04-04T06:37:13.493Z,44.7
2017-04-04T06:38:35.248Z,43.55
2017-04-04T06:39:57.387Z,43.94
2017-04-04T06:41:19.630Z,42.9
2017-04-04T06:42:41.873Z,42.35
2017-04-04T06:44:04.268Z,41.12
2017-04-04T06:45:25.768Z,41.1
2017-04-04T06:46:47.591Z,39.68
2017-04-04T06:48:09.418Z,39.51
2017-04-04T06:49:33.710Z,37.32
2017-04-04T06:50:55.227Z,36.37
2017-04-04T06:52:17.050Z,36.95
2017-04-04T06:53:39.230Z,37.41
2017-04-04T06:55:02.054Z,37.02
2017-04-04T06:56:24.497Z,36.47
2017-04-04T06:57:46.005Z,36.47
2017-04-04T06:59:07.892Z,36.18
2017-04-04T07:00:30.135Z,36.18
2017-04-04T07:01:51.998Z,35.14
2017-04-04T07:03:14.154Z,35.42
2017-04-04T07:04:35.991Z,35.89
2017-04-04T07:05:58.121Z,36.27
2017-04-04T07:07:20.267Z,36.56
2017-04-04T07:08:42.420Z,37.12
2017-04-04T07:10:04.573Z,36.74
2017-04-04T07:11:26.088Z,36.27
2017-04-04T07:12:48.245Z,36.66
2017-04-04T07:14:09.758Z,36.54
2017-04-04T07:15:31.815Z,36.1
2017-04-04T07:16:54.011Z,36.18
2017-04-04T07:18:15.855Z,35.79
2017-04-04T07:19:38.345Z,34.96
2017-04-04T07:21:00.158Z,35.06
2017-04-04T07:22:22.586Z,34.09
2017-04-04T07:23:45.056Z,32.59
2017-04-04T07:25:07.264Z,33.45
2017-04-04T07:26:28.832Z,34.58
2017-04-04T07:27:51.080Z,35.14
2017-04-04T07:29:13.257Z,35.91
2017-04-04T07:30:35.099Z,36.95
2017-04-04T07:31:57.566Z,38.09
2017-04-04T07:33:19.664Z,40.33
2017-04-04T07:34:42.215Z,42.52
2017-04-04T07:36:04.447Z,42.43
2017-04-04T07:37:26.365Z,41.85
2017-04-04T07:38:47.946Z,41.75
2017-04-04T07:40:10.252Z,40.23
2017-04-04T07:41:32.518Z,39.68
2017-04-04T07:42:54.037Z,39.51
2017-04-04T07:44:16.737Z,38.47
2017-04-04T07:45:39.019Z,38.29
2017-04-04T07:47:01.147Z,39.79
2017-04-04T07:48:23.731Z,42.47
2017-04-04T07:49:46.637Z,46.43
2017-04-04T07:51:08.839Z,49.81
2017-04-04T07:52:31.337Z,54.07
2017-04-04T07:53:53.167Z,56.79
2017-04-04T07:55:15.933Z,58.16
2017-04-04T07:56:37.444Z,60.74
2017-04-04T07:57:59.167Z,61.57
2017-04-04T07:59:20.686Z,61.66
2017-04-04T08:00:42.466Z,62.43
2017-04-04T08:02:04.365Z,62.11
2017-04-04T08:03:26.547Z,62.97
2017-04-04T08:04:48.702Z,63.73
2017-04-04T08:06:10.564Z,64.02
2017-04-04T08:07:32.386Z,65.17
2017-04-04T08:08:53.912Z,65.42
2017-04-04T08:10:15.755Z,66.09
2017-04-04T08:11:37.858Z,66.47
2017-04-04T08:13:00.007Z,66.18
2017-04-04T08:14:22.533Z,65.52
2017-04-04T08:15:44.657Z,66.18
2017-04-04T08:17:06.218Z,64.21
2017-04-04T08:18:28.445Z,63.99
2017-04-04T08:19:49.645Z,63.13
2017-04-04T08:21:11.796Z,62.78
2017-04-04T08:22:33.619Z,62.78
2017-04-04T08:23:55.445Z,62.21
2017-04-04T08:25:17.313Z,62.21
2017-04-04T08:26:39.453Z,62.78
2017-04-04T08:28:01.587Z,63.26
2017-04-04T08:29:23.738Z,61.83
2017-04-04T08:30:46.217Z,61.35
2017-04-04T08:32:08.403Z,59.85
2017-04-04T08:33:30.725Z,57.97
2017-04-04T08:34:53.208Z,56.38
2017-04-04T08:36:15.647Z,54.59
2017-04-04T08:37:37.484Z,54.68
2017-04-04T08:38:59.606Z,55.74
2017-04-04T08:40:21.482Z,58.16
2017-04-04T08:41:43.709Z,59.47
2017-04-04T08:43:05.265Z,60.39
2017-04-04T08:44:27.530Z,60.3
2017-04-04T08:45:49.654Z,59.56
2017-04-04T08:47:11.495Z,59.09
2017-04-04T08:48:33.345Z,57.31
2017-04-04T08:49:55.425Z,57.21
2017-04-04T08:51:17.605Z,55.52
2017-04-04T08:52:40.075Z,53.82
2017-04-04T08:54:01.915Z,53.25
2017-04-04T08:55:24.546Z,55.42
2017-04-04T08:56:46.720Z,54.39
2017-04-04T08:58:08.400Z,54.3
2017-04-04T08:59:30.559Z,53.82
2017-04-04T09:00:53.002Z,53.06
2017-04-04T09:02:14.837Z,53.44
2017-04-04T09:03:36.694Z,52.29
2017-04-04T09:04:58.214Z,51.65
2017-04-04T09:06:20.083Z,50.98
2017-04-04T09:07:41.912Z,51.27
2017-04-04T09:09:04.160Z,51.39
2017-04-04T09:10:26.742Z,51.48
2017-04-04T09:11:49.125Z,50.43
2017-04-04T09:13:11.587Z,49.66
2017-04-04T09:14:33.139Z,50.15
2017-04-04T09:15:54.694Z,50.52
2017-04-04T09:17:17.128Z,51.17
2017-04-04T09:18:38.991Z,51.56
2017-04-04T09:20:00.546Z,51.27
2017-04-04T09:21:21.731Z,51.75
2017-04-04T09:22:43.863Z,51.36
2017-04-04T09:24:05.375Z,51.1
2017-04-04T09:25:26.633Z,49.66
2017-04-04T09:26:48.462Z,50.52
2017-04-04T09:28:10.256Z,49.66
2017-04-04T09:29:31.777Z,49.76
2017-04-04T09:30:53.939Z,50.02
2017-04-04T09:32:15.786Z,51.27
2017-04-04T09:33:38.545Z,52.03
2017-04-04T09:35:00.456Z,51.84
2017-04-04T09:36:22.947Z,51.56
2017-04-04T09:37:44.874Z,52.22
2017-04-04T09:39:07.325Z,53.56
2017-04-04T09:40:29.770Z,52.32
2017-04-04T09:41:51.606Z,51.87
2017-04-04T09:43:13.435Z,51.1
2017-04-04T09:44:35.277Z,51.46
2017-04-04T09:45:57.119Z,51.93
2017-04-04T09:47:19.276Z,51.53
2017-04-04T09:48:41.409Z,53.16
2017-04-04T09:50:03.565Z,54.02
2017-04-04T09:51:25.085Z,55.61
2017-04-04T09:52:46.735Z,54.27
2017-04-04T09:54:08.319Z,54.66
2017-04-04T09:55:30.238Z,56.09
2017-04-04T09:56:52.106Z,55.23
2017-04-04T09:58:13.617Z,54.56
2017-04-04T09:59:35.786Z,54.47
2017-04-04T10:00:58.297Z,55.9
2017-04-04T10:02:20.564Z,55.8
2017-04-04T10:03:43.048Z,54.66
2017-04-04T10:05:04.884Z,53.7
2017-04-04T10:06:27.108Z,54.02
2017-04-04T10:07:49.243Z,53.99
2017-04-04T10:09:11.051Z,54.02
2017-04-04T10:10:32.884Z,53.82
2017-04-04T10:11:55.170Z,53.16
2017-04-04T10:13:16.993Z,51.07
2017-04-04T10:14:39.242Z,50.5
2017-04-04T10:16:01.126Z,50.79
2017-04-04T10:17:23.245Z,51.75
2017-04-04T10:18:45.070Z,51.56
2017-04-04T10:20:06.573Z,52.03
2017-04-04T10:21:28.086Z,51.81
2017-04-04T10:22:50.924Z,51.75
2017-04-04T10:24:12.454Z,51.81
2017-04-04T10:25:34.074Z,52.77
2017-04-04T10:26:56.214Z,52.96
2017-04-04T10:28:18.655Z,53.06
2017-04-04T10:29:40.515Z,52.58
2017-04-04T10:31:02.015Z,53.03
2017-04-04T10:32:24.162Z,53.7
2017-04-04T10:33:46.359Z,53.13
2017-04-04T10:35:07.586Z,53.63
2017-04-04T10:36:29.725Z,53.73
2017-04-04T10:37:51.849Z,54.02
2017-04-04T10:39:14.017Z,53.73
2017-04-04T10:40:36.174Z,53.73
2017-04-04T10:41:58.336Z,55.04
2017-04-04T10:43:20.935Z,55.07
2017-04-04T10:44:43.699Z,54.59
2017-04-04T10:46:05.859Z,54.11
2017-04-04T10:47:27.995Z,53.25
2017-04-04T10:48:49.501Z,53.73
2017-04-04T10:50:12.265Z,54.49
2017-04-04T10:51:34.165Z,55.16
2017-04-04T10:52:56.718Z,53.63
2017-04-04T10:54:18.544Z,52.96
2017-04-04T10:55:41.329Z,54.18
2017-04-04T10:57:03.554Z,54.85
2017-04-04T10:58:25.385Z,55.13
2017-04-04T10:59:47.228Z,55.3
2017-04-04T11:01:09.989Z,55.77
2017-04-04T11:02:32.185Z,56.16
2017-04-04T11:03:53.685Z,56.35
2017-04-04T11:05:15.529Z,56.73
2017-04-04T11:06:37.353Z,56.25
2017-04-04T11:07:59.205Z,55.9
2017-04-04T11:09:21.347Z,55.9
2017-04-04T11:10:43.484Z,55.74
2017-04-04T11:12:05.719Z,55.83
2017-04-04T11:13:27.874Z,53.94
2017-04-04T11:14:50.734Z,53.47
2017-04-04T11:16:12.551Z,52.8
2017-04-04T11:17:34.659Z,53.28
2017-04-04T11:18:56.603Z,52.8
2017-04-04T11:20:19.054Z,53.28
2017-04-04T11:21:41.303Z,53.18
2017-04-04T11:23:03.813Z,53.85
2017-04-04T11:24:25.644Z,51.65
2017-04-04T11:25:47.485Z,52.32
2017-04-04T11:27:09.633Z,52.61
2017-04-04T11:28:32.144Z,53.06
2017-04-04T11:29:53.975Z,53.63
2017-04-04T11:31:16.456Z,54.21
2017-04-04T11:32:38.267Z,54.21
2017-04-04T11:34:00.894Z,54.02
2017-04-04T11:35:23.065Z,54.66
2017-04-04T11:36:45.297Z,54.66
2017-04-04T11:38:07.430Z,54.56
2017-04-04T11:39:29.295Z,54.94
2017-04-04T11:40:51.114Z,54.02
2017-04-04T11:42:12.941Z,53.92
2017-04-04T11:43:34.779Z,54.39
2017-04-04T11:44:56.920Z,53.82
2017-04-04T11:46:18.771Z,54.59
2017-04-04T11:47:40.941Z,53.85
2017-04-04T11:49:03.089Z,53.85
2017-04-04T11:50:25.893Z,52.99
2017-04-04T11:51:48.050Z,53.66
2017-04-04T11:53:09.257Z,54.59
2017-04-04T11:54:31.223Z,54.68
2017-04-04T11:55:53.414Z,54.04
2017-04-04T11:57:15.264Z,54.14
2017-04-04T11:58:37.430Z,54.68
2017-04-04T11:59:59.314Z,54.88
2017-04-04T12:01:21.202Z,55.61
2017-04-04T12:02:43.357Z,56.09
2017-04-04T12:04:05.315Z,56.67
2017-04-04T12:05:27.483Z,58.38
2017-04-04T12:06:49.622Z,57.43
2017-04-04T12:08:12.059Z,55.93
2017-04-04T12:09:33.581Z,55.26
2017-04-04T12:10:55.808Z,55.83
2017-04-04T12:12:18.035Z,55.93
2017-04-04T12:13:39.552Z,56.95
2017-04-04T12:15:01.086Z,57.43
2017-04-04T12:16:22.954Z,56.57
2017-04-04T12:17:45.887Z,54.78
2017-04-04T12:19:08.362Z,54.59
2017-04-04T12:20:30.520Z,55.07
2017-04-04T12:21:52.376Z,54.02
2017-04-04T12:23:14.238Z,54.78
2017-04-04T12:24:36.771Z,55.26
2017-04-04T12:25:59.081Z,54.68
2017-04-04T12:27:21.350Z,53.82
2017-04-04T12:28:43.494Z,53.82
2017-04-04T12:30:05.413Z,54.02
2017-04-04T12:31:27.597Z,54.11
2017-04-04T12:32:49.418Z,54.49
2017-04-04T12:34:11.932Z,53.73
2017-04-04T12:35:34.403Z,54.68
2017-04-04T12:36:56.664Z,54.97
2017-04-04T12:38:18.603Z,53.82
2017-04-04T12:39:41.173Z,54.23
2017-04-04T12:41:03.631Z,53.85
2017-04-04T12:42:25.160Z,52.7
2017-04-04T12:43:47.323Z,53.16
2017-04-04T12:45:09.527Z,53.53
2017-04-04T12:46:31.794Z,54.68
2017-04-04T12:47:53.613Z,54.97
2017-04-04T12:49:14.795Z,55.07
2017-04-04T12:50:37.323Z,53.75
2017-04-04T12:51:59.778Z,53.75
2017-04-04T12:53:21.627Z,53.08
2017-04-04T12:54:44.107Z,53.92
2017-04-04T12:56:06.615Z,54.04
2017-04-04T12:57:28.456Z,53.56
2017-04-04T12:58:50.306Z,52.8
2017-04-04T13:00:12.474Z,54.04
2017-04-04T13:01:35.334Z,53.44
2017-04-04T13:02:57.169Z,53.82
2017-04-04T13:04:18.841Z,53.73
2017-04-04T13:05:41.039Z,54.02
2017-04-04T13:07:03.545Z,54.02
2017-04-04T13:08:26.015Z,54.49
2017-04-04T13:09:48.479Z,55.54
2017-04-04T13:11:10.343Z,54.59
2017-04-04T13:12:33.657Z,54.68
2017-04-04T13:13:55.824Z,55.45
2017-04-04T13:15:17.655Z,55.93
2017-04-04T13:16:39.825Z,56.4
2017-04-04T13:18:02.650Z,56.67
2017-04-04T13:19:24.886Z,56.31
2017-04-04T13:20:47.110Z,56.95
2017-04-04T13:22:09.317Z,56.85
2017-04-04T13:23:31.465Z,57.14
2017-04-04T13:24:53.964Z,57.43
2017-04-04T13:26:15.822Z,56.12
2017-04-04T13:27:37.871Z,55.54
2017-04-04T13:29:00.077Z,56.5
2017-04-04T13:30:22.533Z,55.54
2017-04-04T13:31:44.406Z,55.54
2017-04-04T13:33:06.685Z,55.35
2017-04-04T13:34:28.244Z,56.02
2017-04-04T13:35:50.086Z,55.35
2017-04-04T13:37:12.264Z,55.83
2017-04-04T13:38:34.734Z,56.31
2017-04-04T13:39:57.256Z,56.5
2017-04-04T13:41:19.274Z,55.64
2017-04-04T13:42:41.865Z,56.21
2017-04-04T13:44:04.335Z,55.83
2017-04-04T13:45:26.915Z,55.83
2017-04-04T13:46:48.862Z,55.93
2017-04-04T13:48:10.683Z,55.83
2017-04-04T13:49:33.142Z,56.02
2017-04-04T13:50:55.914Z,55.83
2017-04-04T13:52:18.065Z,55.26
2017-04-04T13:53:39.646Z,55.83
2017-04-04T13:55:01.478Z,55.26
2017-04-04T13:56:24.305Z,56.31
2017-04-04T13:57:46.544Z,56.98
2017-04-04T13:59:09.027Z,56.69
2017-04-04T14:00:30.863Z,56.12
2017-04-04T14:01:53.685Z,56.4
2017-04-04T14:03:15.842Z,55.83
2017-04-04T14:04:38.352Z,55.45
2017-04-04T14:05:59.867Z,55.74
2017-04-04T14:07:22.825Z,55.16
2017-04-04T14:08:44.875Z,54.49
2017-04-04T14:10:07.276Z,55.26
2017-04-04T14:11:29.114Z,54.97
2017-04-04T14:12:51.615Z,55.1
2017-04-04T14:14:13.169Z,54.23
2017-04-04T14:15:35.355Z,54.04
2017-04-04T14:16:57.210Z,54.61
2017-04-04T14:18:19.735Z,55.19
2017-04-04T14:19:41.920Z,54.04
2017-04-04T14:21:03.757Z,53.47
2017-04-04T14:22:25.584Z,53.94
2017-04-04T14:23:48.073Z,55
2017-04-04T14:25:10.209Z,55.67
2017-04-04T14:26:32.355Z,55.47
2017-04-04T14:27:54.517Z,55.54
2017-04-04T14:29:17.380Z,55.64
2017-04-04T14:30:39.319Z,56.21
2017-04-04T14:32:01.176Z,56.88
2017-04-04T14:33:23.484Z,56.85
2017-04-04T14:34:45.985Z,57.24
2017-04-04T14:36:07.865Z,56.69
2017-04-04T14:37:30.019Z,56.98
2017-04-04T14:38:51.868Z,57.26
2017-04-04T14:40:16.225Z,56.88
2017-04-04T14:41:38.087Z,56.31
2017-04-04T14:43:00.454Z,56.79
2017-04-04T14:44:22.003Z,56.12
2017-04-04T14:45:44.596Z,56.88
2017-04-04T14:47:07.160Z,57.07
2017-04-04T14:48:29.324Z,55.74
2017-04-04T14:49:51.469Z,56.21
2017-04-04T14:51:13.984Z,55.83
2017-04-04T14:52:35.847Z,55.74
2017-04-04T14:53:58.326Z,56.21
2017-04-04T14:55:20.175Z,55.64
2017-04-04T14:56:42.666Z,55.93
2017-04-04T14:58:04.534Z,56.09
2017-04-04T14:59:26.829Z,55.74
2017-04-04T15:00:48.975Z,56.09
2017-04-04T15:02:11.749Z,55.71
2017-04-04T15:03:34.205Z,56.88
2017-04-04T15:04:56.389Z,56.57
2017-04-04T15:06:18.569Z,56.02
2017-04-04T15:07:41.074Z,56.67
2017-04-04T15:09:02.962Z,56.76
2017-04-04T15:10:24.820Z,57.17
2017-04-04T15:11:46.973Z,55.64
2017-04-04T15:13:09.448Z,55.45
2017-04-04T15:14:31.650Z,55.64
2017-04-04T15:15:53.818Z,55.26
2017-04-04T15:17:15.958Z,54.88
2017-04-04T15:18:38.232Z,54.02
2017-04-04T15:19:59.791Z,54.68
2017-04-04T15:21:22.297Z,53.85
2017-04-04T15:22:44.837Z,53.56
2017-04-04T15:24:07.305Z,53.94
2017-04-04T15:25:28.955Z,53.75
2017-04-04T15:26:50.513Z,53.85
2017-04-04T15:28:12.386Z,53.66
2017-04-04T15:29:34.885Z,53.28
2017-04-04T15:30:57.029Z,53.75
2017-04-04T15:32:18.554Z,53.28
2017-04-04T15:33:40.742Z,53.18
2017-04-04T15:35:03.185Z,52.99
2017-04-04T15:36:25.338Z,52.89
2017-04-04T15:37:46.894Z,52.22
2017-04-04T15:39:08.896Z,52.42
2017-04-04T15:40:31.186Z,52.7
2017-04-04T15:41:53.402Z,52.51
2017-04-04T15:43:15.546Z,52.13
2017-04-04T15:44:38.118Z,52.42
2017-04-04T15:46:00.685Z,52.32
2017-04-04T15:47:22.849Z,52.42
2017-04-04T15:48:45.297Z,52.8
2017-04-04T15:50:07.811Z,52.89
2017-04-04T15:51:29.931Z,52.99
2017-04-04T15:52:51.825Z,52.89
2017-04-04T15:54:14.061Z,51.93
2017-04-04T15:55:35.910Z,51.84
2017-04-04T15:56:58.405Z,51.65
2017-04-04T15:58:20.035Z,52.22
2017-04-04T15:59:41.587Z,52.51
2017-04-04T16:01:04.126Z,52.32
2017-04-04T16:02:27.030Z,52.89
2017-04-04T16:03:49.507Z,51.84
2017-04-04T16:05:11.999Z,52.51
2017-04-04T16:06:34.212Z,52.51
2017-04-04T16:07:56.721Z,51.68
2017-04-04T16:09:19.198Z,51.87
2017-04-04T16:10:41.718Z,51.2
2017-04-04T16:12:03.870Z,51.48
2017-04-04T16:13:25.728Z,51.39
2017-04-04T16:14:47.889Z,51.68
2017-04-04T16:16:10.057Z,51.39
2017-04-04T16:17:32.551Z,51.68
2017-04-04T16:18:54.752Z,51.68
2017-04-04T16:20:15.970Z,52.06
2017-04-04T16:21:38.433Z,52.09
2017-04-04T16:23:00.587Z,51.7
2017-04-04T16:24:23.461Z,52.28
2017-04-04T16:25:45.377Z,51.89
2017-04-04T16:27:07.699Z,52.75
2017-04-04T16:28:29.560Z,52.47
2017-04-04T16:29:51.990Z,51.89
2017-04-04T16:31:14.338Z,51.77
2017-04-04T16:32:36.319Z,52.25
2017-04-04T16:33:58.152Z,52.63
2017-04-04T16:35:21.174Z,52.63
2017-04-04T16:36:43.386Z,51.77
2017-04-04T16:38:05.892Z,51.87
2017-04-04T16:39:27.734Z,52.54
2017-04-04T16:40:50.518Z,52.63
2017-04-04T16:42:13.066Z,52.63
2017-04-04T16:43:34.634Z,52.51
2017-04-04T16:44:56.592Z,52.8
2017-04-04T16:46:19.128Z,52.42
2017-04-04T16:47:41.328Z,52.89
2017-04-04T16:49:03.512Z,53.66
2017-04-04T16:50:25.541Z,53.18
2017-04-04T16:51:47.889Z,53.28
2017-04-04T16:53:09.889Z,53.75
2017-04-04T16:54:32.373Z,55.07
2017-04-04T16:55:53.929Z,56.12
2017-04-04T16:57:16.712Z,57.84
2017-04-04T16:58:38.880Z,58.8
2017-04-04T17:00:01.351Z,57.36
2017-04-04T17:01:23.944Z,57.93
2017-04-04T17:02:47.367Z,57.62
2017-04-04T17:04:09.865Z,58.51
2017-04-04T17:05:32.087Z,58.95
2017-04-04T17:06:54.584Z,59.53
2017-04-04T17:08:17.098Z,59.72
2017-04-04T17:09:39.615Z,59.34
2017-04-04T17:11:01.455Z,59.24
2017-04-04T17:12:23.669Z,60.49
2017-04-04T17:13:46.432Z,61.63
2017-04-04T17:15:08.612Z,61.72
2017-04-04T17:16:30.521Z,61.03
2017-04-04T17:17:52.405Z,61.41
2017-04-04T17:19:15.229Z,61.69
2017-04-04T17:20:37.728Z,62.08
2017-04-04T17:21:59.699Z,62.08
2017-04-04T17:23:21.900Z,62.08
2017-04-04T17:24:44.728Z,62.75
2017-04-04T17:26:07.308Z,63.13
2017-04-04T17:27:29.827Z,63.39
2017-04-04T17:28:51.976Z,63.67
2017-04-04T17:30:14.445Z,63.76
2017-04-04T17:31:36.930Z,64.25
2017-04-04T17:32:59.459Z,64.62
2017-04-04T17:34:21.696Z,64.05
2017-04-04T17:35:44.302Z,64.43
2017-04-04T17:37:06.150Z,65.07
2017-04-04T17:38:28.649Z,64.69
2017-04-04T17:39:51.153Z,65.45
2017-04-04T17:41:13.954Z,65.45